Terminal Aerodrome Forecast
Issued by NWS

Home | Current Version | Previous Version | Text Only | Print | Product List | Glossary On
Versions: 1 2 3 4 5 6 7 8 9 10 11 12 13 14 15 16 17
000
FTUS45 KRIW 171741
TAFWRL
TAF
KWRL 171741Z 1718/1818 VRB04KT P6SM SCT050
     FM180000 16010KT P6SM FEW120 WS010/22035KT
     FM181200 33010G20KT 1SM -SN OVC015=

USA.gov is the U.S. government's official web portal to all federal, state and local government web resources and services.